Time;durP1;ratioP1;P1;durP2;ratioP2;P2;SDS_P1;SDS_P2;PMS_P1;PMS_P2;Temp;Humidity;BMP_temperature;BMP_pressure;BME280_temperature;BME280_humidity;BME280_pressure;Samples;Min_cycle;Max_cycle;Signal;HPM_P1;HPM_P2
2024/01/17 00:00:03;;;;;;;42.38;19.90;;;;;;;-8.80;100.00;94673.63;2058230;28;20042;-55
2024/01/17 00:01:13;;;;;;;41.65;19.58;;;;;;;-8.76;100.00;94663.59;2057528;28;20062;-55
2024/01/17 00:02:14;;;;;;;45.28;21.67;;;;;;;-8.71;100.00;94668.66;2057647;28;20058;-55
2024/01/17 00:03:15;;;;;;;39.85;19.90;;;;;;;-8.71;100.00;94669.50;2058487;28;20425;-55
2024/01/17 00:04:16;;;;;;;45.63;20.05;;;;;;;-8.74;100.00;94664.44;2057577;28;20046;-55
2024/01/17 00:05:17;;;;;;;41.75;18.70;;;;;;;-8.70;100.00;94657.75;2057664;28;20059;-55
2024/01/17 00:06:18;;;;;;;48.42;22.77;;;;;;;-8.67;100.00;94660.28;2057634;28;20497;-55
2024/01/17 00:07:20;;;;;;;37.70;20.17;;;;;;;-8.72;100.00;94652.69;2057735;28;20046;-55
2024/01/17 00:08:21;;;;;;;45.40;21.33;;;;;;;-8.67;100.00;94653.56;2058334;28;20042;-55
2024/01/17 00:09:23;;;;;;;41.95;19.38;;;;;;;-8.61;100.00;94649.41;2058505;28;20049;-55
2024/01/17 00:10:24;;;;;;;40.00;19.75;;;;;;;-8.58;100.00;94651.91;2058431;28;20043;-55
2024/01/17 00:11:25;;;;;;;44.88;19.30;;;;;;;-8.55;100.00;94654.44;2058471;28;20049;-56
2024/01/17 00:12:26;;;;;;;40.45;19.40;;;;;;;-8.50;100.00;94652.78;2058255;28;20043;-56
2024/01/17 00:13:27;;;;;;;43.17;20.55;;;;;;;-8.52;100.00;94651.97;2058131;28;20410;-55
2024/01/17 00:14:28;;;;;;;41.72;19.50;;;;;;;-8.55;100.00;94647.75;2058260;28;20038;-55
2024/01/17 00:15:30;;;;;;;40.13;19.50;;;;;;;-8.55;100.00;94649.41;2058236;28;20050;-55
2024/01/17 00:16:31;;;;;;;40.65;19.08;;;;;;;-8.53;100.00;94650.25;2058181;28;20050;-56
2024/01/17 00:17:32;;;;;;;41.75;19.95;;;;;;;-8.48;100.00;94656.16;2057373;28;20051;-57
2024/01/17 00:18:33;;;;;;;42.55;19.67;;;;;;;-8.50;100.00;94652.78;2058164;28;20038;-55
2024/01/17 00:19:35;;;;;;;44.47;21.17;;;;;;;-8.48;100.00;94653.66;2058367;28;20483;-56
2024/01/17 00:20:36;;;;;;;42.53;19.45;;;;;;;-8.45;100.00;94658.69;2058173;28;20467;-55
2024/01/17 00:21:37;;;;;;;40.05;19.63;;;;;;;-8.43;100.00;94665.41;2059314;28;20062;-64
2024/01/17 00:22:38;;;;;;;36.95;19.17;;;;;;;-8.40;100.00;94654.53;2059472;28;20058;-58
2024/01/17 00:23:39;;;;;;;39.30;20.05;;;;;;;-8.40;100.00;94656.19;2059624;28;20047;-55
2024/01/17 00:24:40;;;;;;;43.38;19.13;;;;;;;-8.40;100.00;94654.53;2059884;28;20054;-60
2024/01/17 00:25:41;;;;;;;40.30;19.77;;;;;;;-8.40;100.00;94654.53;2057896;28;20058;-56
2024/01/17 00:26:42;;;;;;;35.25;16.45;;;;;;;-8.37;100.00;94657.00;2057276;28;20055;-56
2024/01/17 00:27:44;;;;;;;40.00;18.20;;;;;;;-8.33;100.00;94655.38;2058265;28;20046;-56
2024/01/17 00:28:45;;;;;;;40.58;18.42;;;;;;;-8.27;100.00;94648.66;2058210;28;20410;-56
2024/01/17 00:29:46;;;;;;;39.05;19.13;;;;;;;-8.23;100.00;94647.84;2057214;28;20050;-56
2024/01/17 00:30:47;;;;;;;38.95;18.67;;;;;;;-8.18;100.00;94647.00;2057492;28;20055;-55
2024/01/17 00:31:48;;;;;;;40.47;18.58;;;;;;;-8.17;100.00;94641.97;2058129;28;20043;-55
2024/01/17 00:32:50;;;;;;;41.55;19.25;;;;;;;-8.11;100.00;94638.63;2057196;28;20055;-55
2024/01/17 00:33:51;;;;;;;46.22;19.67;;;;;;;-8.13;100.00;94637.78;2057459;28;20501;-55
2024/01/17 00:34:52;;;;;;;37.30;17.15;;;;;;;-8.08;100.00;94644.50;2057956;28;20034;-57
2024/01/17 00:35:53;;;;;;;41.45;19.90;;;;;;;-8.16;100.00;94636.09;2058074;28;20051;-59
2024/01/17 00:36:54;;;;;;;40.08;18.67;;;;;;;-8.18;100.00;94634.41;2048641;29;20479;-56
2024/01/17 00:37:55;;;;;;;38.17;17.80;;;;;;;-8.15;100.00;94625.19;2049534;28;20043;-56
2024/01/17 00:38:56;;;;;;;38.60;18.75;;;;;;;-8.08;100.00;94621.00;2057217;28;20055;-55
2024/01/17 00:39:58;;;;;;;40.33;18.48;;;;;;;-8.06;100.00;94622.69;2058023;28;20163;-56
2024/01/17 00:40:59;;;;;;;42.55;19.85;;;;;;;-8.14;100.00;94626.88;2057936;28;20058;-55
2024/01/17 00:42:00;;;;;;;41.30;19.17;;;;;;;-8.16;100.00;94617.63;2057551;28;20050;-56
2024/01/17 00:43:01;;;;;;;32.30;17.67;;;;;;;-8.15;100.00;94610.09;2058129;28;20406;-55
2024/01/17 00:44:04;;;;;;;38.40;18.08;;;;;;;-8.03;100.00;94614.31;2058440;28;20485;-55
2024/01/17 00:45:06;;;;;;;38.47;17.80;;;;;;;-8.06;100.00;94599.19;2058025;28;20062;-55
2024/01/17 00:46:07;;;;;;;41.05;18.60;;;;;;;-8.09;100.00;94589.09;2057176;28;20085;-56
2024/01/17 00:47:09;;;;;;;40.70;17.73;;;;;;;-8.07;100.00;94600.00;2057919;28;20049;-56
2024/01/17 00:48:10;;;;;;;37.33;16.90;;;;;;;-7.97;100.00;94604.22;2058009;28;20054;-56
2024/01/17 00:49:11;;;;;;;36.80;18.00;;;;;;;-7.87;100.00;94602.56;2057558;28;20055;-55
2024/01/17 00:50:14;;;;;;;35.63;17.63;;;;;;;-7.84;100.00;94605.91;2057968;28;20043;-55
2024/01/17 00:51:22;;;;;;;36.25;18.08;;;;;;;-7.80;100.00;94607.63;2057998;28;20046;-56
2024/01/17 00:52:23;;;;;;;35.97;16.67;;;;;;;-7.80;100.00;94612.66;2057873;28;20046;-55
2024/01/17 00:53:24;;;;;;;34.53;17.65;;;;;;;-7.85;100.00;94611.81;2057327;28;20081;-55
2024/01/17 00:54:25;;;;;;;36.80;15.98;;;;;;;-7.85;100.00;94616.03;2057916;28;20043;-56
2024/01/17 00:55:26;;;;;;;37.75;17.70;;;;;;;-7.84;100.00;94617.69;2058035;28;20045;-55
2024/01/17 00:56:27;;;;;;;34.38;16.05;;;;;;;-7.77;100.00;94607.63;2057183;28;20050;-55
2024/01/17 00:57:29;;;;;;;36.58;18.00;;;;;;;-7.85;100.00;94606.78;2056804;28;20403;-55
2024/01/17 00:58:31;;;;;;;40.63;17.98;;;;;;;-7.92;100.00;94607.59;2057286;28;20057;-55
2024/01/17 00:59:32;;;;;;;39.58;18.13;;;;;;;-7.93;100.00;94610.97;2057951;28;20065;-56
2024/01/17 01:00:33;;;;;;;36.45;16.88;;;;;;;-7.87;100.00;94602.56;2058006;28;20064;-56
2024/01/17 01:01:34;;;;;;;37.92;18.38;;;;;;;-7.89;100.00;94596.69;2058025;28;20497;-55
2024/01/17 01:02:35;;;;;;;38.25;18.23;;;;;;;-7.92;100.00;94597.50;2058122;28;20042;-55
2024/01/17 01:03:36;;;;;;;40.45;18.50;;;;;;;-7.95;100.00;94589.94;2057842;28;20042;-55
2024/01/17 01:04:37;;;;;;;41.60;18.42;;;;;;;-7.97;100.00;94595.81;2058004;28;20390;-55
2024/01/17 01:05:39;;;;;;;32.13;17.15;;;;;;;-7.90;100.00;94600.06;2057499;28;20066;-56
2024/01/17 01:06:40;;;;;;;37.47;18.20;;;;;;;-7.86;100.00;94596.69;2057682;28;20055;-55
2024/01/17 01:07:41;;;;;;;36.78;16.95;;;;;;;-7.86;100.00;94589.13;2056905;28;20054;-55
2024/01/17 01:08:42;;;;;;;34.08;17.35;;;;;;;-7.84;100.00;94582.41;2058009;28;20501;-55
2024/01/17 01:09:43;;;;;;;35.70;16.52;;;;;;;-7.81;100.00;94579.88;2057127;28;20055;-55
2024/01/17 01:10:45;;;;;;;34.83;18.77;;;;;;;-7.71;100.00;94586.63;2057715;28;20058;-56
2024/01/17 01:11:46;;;;;;;35.70;17.02;;;;;;;-7.71;100.00;94579.03;2057899;28;20354;-56
2024/01/17 01:12:47;;;;;;;33.85;16.05;;;;;;;-7.64;100.00;94579.91;2056803;28;20066;-55
2024/01/17 01:13:48;;;;;;;34.45;17.33;;;;;;;-7.60;100.00;94584.09;2049485;28;20565;-56
2024/01/17 01:14:49;;;;;;;32.58;16.98;;;;;;;-7.55;100.00;94595.03;2049264;29;20054;-56
2024/01/17 01:15:50;;;;;;;36.03;16.90;;;;;;;-7.42;100.00;94590.81;2057713;28;20046;-56
2024/01/17 01:16:51;;;;;;;36.42;18.08;;;;;;;-7.40;100.00;94595.03;2057492;28;20059;-56
2024/01/17 01:17:52;;;;;;;32.80;17.40;;;;;;;-7.46;100.00;94587.44;2056968;28;20047;-56
2024/01/17 01:18:53;;;;;;;30.70;15.85;;;;;;;-7.45;100.00;94585.78;2057897;28;20053;-56
2024/01/17 01:19:55;;;;;;;33.65;16.27;;;;;;;-7.41;100.00;94587.44;2057631;28;20053;-56
2024/01/17 01:20:57;;;;;;;33.08;17.05;;;;;;;-7.32;100.00;94579.88;2057165;28;20054;-56
2024/01/17 01:21:58;;;;;;;35.35;16.98;;;;;;;-7.23;100.00;94591.63;2057770;28;20055;-55
2024/01/17 01:22:59;;;;;;;29.77;15.88;;;;;;;-7.17;100.00;94589.09;2057441;28;20058;-55
2024/01/17 01:24:00;;;;;;;31.10;17.02;;;;;;;-7.07;100.00;94587.41;2057092;28;20418;-56
2024/01/17 01:25:01;;;;;;;37.67;17.92;;;;;;;-7.00;100.00;94584.88;2057693;28;20054;-55
2024/01/17 01:26:02;;;;;;;36.25;17.80;;;;;;;-6.92;100.00;94574.75;2057026;28;20059;-55
2024/01/17 01:27:03;;;;;;;34.10;16.98;;;;;;;-6.89;100.00;94572.22;2057808;28;20058;-55
2024/01/17 01:28:05;;;;;;;33.28;16.98;;;;;;;-6.92;100.00;94570.53;2057701;28;20058;-57
2024/01/17 01:29:06;;;;;;;32.53;15.95;;;;;;;-6.82;100.00;94570.50;2057747;28;20081;-59
2024/01/17 01:30:07;;;;;;;37.72;16.60;;;;;;;-6.79;100.00;94568.81;2057681;28;20406;-56
2024/01/17 01:31:09;;;;;;;36.58;15.88;;;;;;;-6.70;100.00;94568.78;2057762;28;20043;-56
2024/01/17 01:32:10;;;;;;;33.10;16.52;;;;;;;-6.76;100.00;94566.28;2057689;28;20046;-56
2024/01/17 01:33:11;;;;;;;30.13;15.00;;;;;;;-6.80;100.00;94566.28;2057377;28;20094;-56
2024/01/17 01:34:13;;;;;;;33.33;14.98;;;;;;;-6.86;100.00;94564.63;2057698;28;20046;-55
2024/01/17 01:35:14;;;;;;;32.50;15.13;;;;;;;-6.81;100.00;94567.16;2056952;28;20057;-56
2024/01/17 01:36:15;;;;;;;32.38;15.70;;;;;;;-6.85;100.00;94560.41;2057650;28;20043;-56
2024/01/17 01:37:16;;;;;;;31.75;14.82;;;;;;;-6.88;100.00;94556.22;2057016;28;20054;-57
2024/01/17 01:38:17;;;;;;;33.60;17.20;;;;;;;-6.85;100.00;94555.38;2057128;28;20077;-56
2024/01/17 01:39:19;;;;;;;28.60;14.55;;;;;;;-6.75;100.00;94559.53;2057084;28;20050;-56
2024/01/17 01:40:20;;;;;;;32.88;15.32;;;;;;;-6.72;100.00;94559.53;2056875;28;20050;-55
2024/01/17 01:41:21;;;;;;;31.33;14.95;;;;;;;-6.71;100.00;94562.06;2057580;28;20043;-62
2024/01/17 01:42:22;;;;;;;32.85;15.18;;;;;;;-6.76;100.00;94553.66;2048932;29;20371;-56
2024/01/17 01:43:24;;;;;;;36.65;15.05;;;;;;;-6.72;100.00;94557.84;2048405;28;20066;-55
2024/01/17 01:44:25;;;;;;;31.05;15.82;;;;;;;-6.67;100.00;94551.09;2057654;28;20324;-55
2024/01/17 01:45:26;;;;;;;31.83;15.63;;;;;;;-6.60;100.00;94549.38;2057011;28;20046;-56
2024/01/17 01:46:27;;;;;;;26.95;15.07;;;;;;;-6.45;100.00;94556.88;2049215;28;20411;-56
2024/01/17 01:47:28;;;;;;;24.90;12.88;;;;;;;-6.58;100.00;94555.25;2049168;29;20043;-56
2024/01/17 01:48:30;;;;;;;34.28;14.88;;;;;;;-6.46;100.00;94555.19;2033021;29;20109;-55
2024/01/17 01:49:31;;;;;;;28.95;13.55;;;;;;;-6.58;100.00;94555.25;2041306;28;20059;-55
2024/01/17 01:50:32;;;;;;;31.55;14.82;;;;;;;-6.58;100.00;94549.38;2057421;28;20094;-56
2024/01/17 01:51:33;;;;;;;28.92;14.02;;;;;;;-6.52;100.00;94549.31;2057045;28;20058;-55
2024/01/17 01:52:34;;;;;;;32.13;14.90;;;;;;;-6.53;100.00;94558.59;2041060;29;20407;-55
2024/01/17 01:53:35;;;;;;;28.58;15.32;;;;;;;-6.46;100.00;94555.19;2041191;28;20055;-57
2024/01/17 01:54:37;;;;;;;33.63;14.70;;;;;;;-6.34;100.00;94553.47;2048138;29;20059;-56
2024/01/17 01:55:38;;;;;;;30.67;15.77;;;;;;;-6.29;100.00;94544.16;2041009;29;20050;-55
2024/01/17 01:56:39;;;;;;;31.65;15.45;;;;;;;-6.27;100.00;94548.38;2040862;29;20055;-56
2024/01/17 01:57:40;;;;;;;34.05;15.15;;;;;;;-6.21;100.00;94545.78;2040968;29;20048;-56
2024/01/17 01:58:43;;;;;;;35.63;16.13;;;;;;;-6.23;100.00;94546.66;2041124;29;20054;-55
2024/01/17 01:59:45;;;;;;;31.67;15.55;;;;;;;-6.16;100.00;94550.81;2033494;29;20460;-55
2024/01/17 02:00:46;;;;;;;33.05;16.02;;;;;;;-6.19;100.00;94538.22;2033332;29;20048;-56
2024/01/17 02:01:47;;;;;;;29.63;15.43;;;;;;;-6.18;100.00;94539.03;2049121;29;20537;-56
2024/01/17 02:02:49;;;;;;;32.80;15.73;;;;;;;-6.22;100.00;94538.25;2057544;28;20053;-55
2024/01/17 02:03:50;;;;;;;30.02;16.58;;;;;;;-6.26;100.00;94539.09;2048937;29;20051;-57
2024/01/17 02:04:52;;;;;;;30.55;14.85;;;;;;;-6.27;100.00;94533.19;2040922;29;20040;-55
2024/01/17 02:05:53;;;;;;;29.08;14.77;;;;;;;-6.17;100.00;94536.53;2040640;29;20071;-56
2024/01/17 02:06:54;;;;;;;27.58;14.18;;;;;;;-6.27;100.00;94539.94;2033098;29;20056;-56
2024/01/17 02:07:55;;;;;;;26.85;13.93;;;;;;;-6.30;100.00;94534.91;2041069;29;20031;-55
2024/01/17 02:08:57;;;;;;;28.17;14.18;;;;;;;-6.31;100.00;94525.66;2032584;29;20083;-55
2024/01/17 02:09:59;;;;;;;29.50;15.20;;;;;;;-6.26;100.00;94532.34;2040617;28;20075;-55
2024/01/17 02:11:00;;;;;;;28.80;15.77;;;;;;;-6.26;100.00;94532.34;2041037;29;20049;-56
2024/01/17 02:12:01;;;;;;;33.83;16.40;;;;;;;-6.32;100.00;94521.44;2041229;28;20048;-56
2024/01/17 02:13:03;;;;;;;29.48;15.35;;;;;;;-6.35;100.00;94524.00;2057449;28;20050;-55
2024/01/17 02:14:05;;;;;;;29.75;15.20;;;;;;;-6.33;100.00;94517.25;2048804;29;20074;-55
2024/01/17 02:15:06;;;;;;;29.77;15.40;;;;;;;-6.26;100.00;94519.72;2048995;28;20103;-56
2024/01/17 02:16:07;;;;;;;35.83;17.83;;;;;;;-6.25;100.00;94513.00;2057413;28;20047;-55
2024/01/17 02:17:09;;;;;;;32.83;15.30;;;;;;;-6.21;100.00;94509.59;2057143;28;20047;-55
2024/01/17 02:18:10;;;;;;;30.00;15.77;;;;;;;-6.19;100.00;94517.16;2048937;29;20055;-56
2024/01/17 02:19:11;;;;;;;31.13;15.43;;;;;;;-6.06;100.00;94512.00;2049035;29;20051;-55
2024/01/17 02:20:13;;;;;;;27.83;15.70;;;;;;;-6.02;100.00;94512.81;2048081;29;20396;-56
2024/01/17 02:21:14;;;;;;;32.78;15.70;;;;;;;-6.03;100.00;94501.88;2048944;28;20060;-55
2024/01/17 02:22:15;;;;;;;32.63;16.50;;;;;;;-5.95;100.00;94503.53;2057370;28;20058;-56
2024/01/17 02:23:26;;;;;;;33.70;16.83;;;;;;;-5.87;100.00;94501.75;2059106;28;20082;-56
2024/01/17 02:24:28;;;;;;;33.58;16.00;;;;;;;-5.79;100.00;94515.97;2059004;28;20043;-56
2024/01/17 02:25:29;;;;;;;29.65;15.48;;;;;;;-5.88;100.00;94502.56;2058463;28;20450;-56
2024/01/17 02:26:30;;;;;;;31.00;15.35;;;;;;;-5.81;100.00;94512.63;2058952;28;20046;-55
2024/01/17 02:27:32;;;;;;;34.78;16.38;;;;;;;-5.80;100.00;94515.97;2059144;28;20479;-55
2024/01/17 02:28:33;;;;;;;30.55;14.77;;;;;;;-5.90;100.00;94504.28;2058986;28;20046;-55
2024/01/17 02:29:34;;;;;;;29.33;15.25;;;;;;;-5.94;100.00;94505.19;2058667;28;20051;-55
2024/01/17 02:30:35;;;;;;;30.08;16.00;;;;;;;-6.03;100.00;94509.47;2058982;28;20371;-55
2024/01/17 02:31:36;;;;;;;29.20;15.18;;;;;;;-6.02;100.00;94503.53;2058344;28;20062;-55
2024/01/17 02:32:37;;;;;;;28.98;14.57;;;;;;;-6.06;100.00;94506.13;2058898;28;20034;-55
2024/01/17 02:33:38;;;;;;;30.92;15.70;;;;;;;-6.00;100.00;94501.84;2058990;28;20050;-55
2024/01/17 02:34:39;;;;;;;27.60;15.05;;;;;;;-5.97;100.00;94498.47;2049782;29;20428;-56
2024/01/17 02:35:41;;;;;;;33.28;15.25;;;;;;;-6.03;100.00;94496.81;2050418;28;20518;-56
2024/01/17 02:36:42;;;;;;;30.02;14.77;;;;;;;-5.95;100.00;94506.88;2049523;29;20138;-55
2024/01/17 02:37:43;;;;;;;36.90;15.80;;;;;;;-5.99;100.00;94490.03;2049649;29;20059;-56
2024/01/17 02:38:44;;;;;;;26.67;13.80;;;;;;;-6.00;100.00;94489.22;2059064;28;20055;-55
2024/01/17 02:39:45;;;;;;;29.77;16.45;;;;;;;-5.86;100.00;94498.34;2058248;28;20058;-56
2024/01/17 02:40:46;;;;;;;31.95;15.20;;;;;;;-5.81;100.00;94505.03;2058906;28;20398;-55
2024/01/17 02:41:47;;;;;;;31.42;15.05;;;;;;;-5.88;100.00;94490.78;2058933;28;20047;-56
2024/01/17 02:42:48;;;;;;;31.42;16.73;;;;;;;-5.85;100.00;94497.50;2058283;28;20062;-56
2024/01/17 02:43:50;;;;;;;28.02;14.75;;;;;;;-5.83;100.00;94501.69;2058824;28;20678;-56
2024/01/17 02:44:51;;;;;;;33.88;15.77;;;;;;;-5.85;100.00;94484.88;2058871;28;20505;-56
2024/01/17 02:45:52;;;;;;;30.48;15.02;;;;;;;-5.90;100.00;94486.59;2059118;28;20046;-55
2024/01/17 02:46:53;;;;;;;26.95;14.20;;;;;;;-5.76;100.00;94492.38;2059166;28;20051;-55
2024/01/17 02:47:54;;;;;;;31.98;15.77;;;;;;;-5.64;100.00;94489.75;2059016;28;20398;-55
2024/01/17 02:48:55;;;;;;;25.58;13.82;;;;;;;-5.65;100.00;94479.63;2057927;28;20058;-56
2024/01/17 02:49:57;;;;;;;28.60;15.15;;;;;;;-5.59;100.00;94480.38;2057971;28;20054;-55
2024/01/17 02:50:58;;;;;;;29.35;14.27;;;;;;;-5.56;100.00;94477.00;2058891;28;20101;-56
2024/01/17 02:51:59;;;;;;;28.27;13.93;;;;;;;-5.46;100.00;94476.06;2058753;28;20051;-56
2024/01/17 02:53:00;;;;;;;27.85;13.13;;;;;;;-5.47;100.00;94469.34;2058829;28;20054;-56
2024/01/17 02:54:02;;;;;;;27.73;14.52;;;;;;;-5.48;100.00;94475.25;2057799;28;20059;-56
2024/01/17 02:55:03;;;;;;;26.02;14.23;;;;;;;-5.42;100.00;94466.78;2057936;28;20050;-56
2024/01/17 02:56:04;;;;;;;30.20;14.73;;;;;;;-5.42;100.00;94460.00;2057794;28;20051;-56
2024/01/17 02:57:05;;;;;;;26.90;13.57;;;;;;;-5.48;100.00;94460.09;2058793;28;20042;-56
2024/01/17 02:58:06;;;;;;;30.02;15.05;;;;;;;-5.39;100.00;94459.13;2058139;28;20066;-56
2024/01/17 02:59:08;;;;;;;28.88;14.80;;;;;;;-5.29;100.00;94459.88;2058722;28;20047;-56
2024/01/17 03:00:09;;;;;;;28.73;14.18;;;;;;;-5.25;100.00;94453.94;2057903;28;20057;-55
2024/01/17 03:01:12;;;;;;;30.73;15.15;;;;;;;-5.24;100.00;94442.94;2058629;28;20042;-55
2024/01/17 03:02:14;;;;;;;26.38;15.10;;;;;;;-5.11;100.00;94447.00;2058799;28;20050;-56
2024/01/17 03:03:15;;;;;;;28.25;14.23;;;;;;;-5.13;100.00;94441.16;2058795;28;20058;-55
2024/01/17 03:04:16;;;;;;;29.05;14.52;;;;;;;-5.11;100.00;94441.94;2057734;28;20479;-57
2024/01/17 03:05:18;;;;;;;29.55;15.48;;;;;;;-5.01;100.00;94438.44;2058834;28;20035;-55
2024/01/17 03:06:19;;;;;;;32.47;16.40;;;;;;;-4.96;100.00;94430.81;2058664;28;20062;-56
2024/01/17 03:07:20;;;;;;;30.40;15.13;;;;;;;-4.87;100.00;94435.75;2058744;28;20394;-55
2024/01/17 03:08:21;;;;;;;29.75;15.13;;;;;;;-4.88;100.00;94427.31;2057954;28;20058;-56
2024/01/17 03:09:22;;;;;;;28.83;15.15;;;;;;;-4.82;100.00;94421.31;2058713;28;20050;-56
2024/01/17 03:10:23;;;;;;;29.88;15.40;;;;;;;-4.83;100.00;94418.84;2058623;28;20042;-55
2024/01/17 03:11:24;;;;;;;30.80;15.73;;;;;;;-4.71;100.00;94426.25;2058761;28;20394;-56
2024/01/17 03:12:25;;;;;;;30.35;15.55;;;;;;;-4.68;100.00;94426.19;2058169;28;20057;-55
2024/01/17 03:13:26;;;;;;;31.13;17.35;;;;;;;-4.62;100.00;94425.28;2057953;28;20046;-55
2024/01/17 03:14:31;;;;;;;32.05;16.92;;;;;;;-4.63;100.00;94426.16;2058822;28;20039;-56
2024/01/17 03:15:32;;;;;;;29.23;15.50;;;;;;;-4.64;100.00;94422.78;2058687;28;20050;-56
2024/01/17 03:16:33;;;;;;;30.92;16.58;;;;;;;-4.56;100.00;94417.63;2058429;28;20398;-56
2024/01/17 03:17:36;;;;;;;35.15;16.92;;;;;;;-4.53;100.00;94423.47;2058403;28;20055;-55
2024/01/17 03:18:37;;;;;;;31.50;15.82;;;;;;;-4.57;100.00;94416.78;2058546;28;20050;-56
2024/01/17 03:19:38;;;;;;;36.83;17.35;;;;;;;-4.53;100.00;94413.31;2058200;28;20051;-56
2024/01/17 03:20:40;;;;;;;28.67;15.35;;;;;;;-4.56;100.00;94413.38;2057282;28;20054;-56
2024/01/17 03:21:46;;;;;;;32.00;16.20;;;;;;;-4.53;100.00;94415.03;2058364;28;20062;-55
2024/01/17 03:22:47;;;;;;;31.60;17.10;;;;;;;-4.49;100.00;94409.03;2058528;28;20039;-55
2024/01/17 03:23:48;;;;;;;29.15;15.68;;;;;;;-4.44;100.00;94410.69;2058484;28;20043;-56
2024/01/17 03:24:49;;;;;;;34.78;17.42;;;;;;;-4.36;100.00;94413.06;2057871;28;20070;-56
2024/01/17 03:25:50;;;;;;;32.00;17.45;;;;;;;-4.35;100.00;94407.16;2057831;28;20122;-56
2024/01/17 03:26:51;;;;;;;30.25;17.25;;;;;;;-4.26;100.00;94399.41;2057837;28;20050;-56
2024/01/17 03:27:52;;;;;;;30.50;16.42;;;;;;;-4.24;100.00;94397.69;2057877;28;20054;-56
2024/01/17 03:28:53;;;;;;;33.60;16.70;;;;;;;-4.21;100.00;94392.56;2058595;28;20047;-56
2024/01/17 03:29:55;;;;;;;34.85;15.73;;;;;;;-4.18;100.00;94396.75;2057452;28;20541;-56
2024/01/17 03:30:56;;;;;;;30.45;16.55;;;;;;;-4.18;100.00;94393.38;2058230;28;20050;-56
2024/01/17 03:31:57;;;;;;;33.47;17.65;;;;;;;-4.16;100.00;94399.28;2057882;28;20509;-56
2024/01/17 03:32:58;;;;;;;32.00;17.58;;;;;;;-4.13;100.00;94400.06;2058441;28;20049;-56
2024/01/17 03:33:59;;;;;;;32.65;17.15;;;;;;;-4.11;100.00;94403.41;2057874;28;20063;-56
2024/01/17 03:35:01;;;;;;;29.75;16.88;;;;;;;-4.04;100.00;94396.53;2057793;28;20055;-56
2024/01/17 03:36:03;;;;;;;37.25;18.40;;;;;;;-4.04;100.00;94396.53;2058568;28;20055;-60
2024/01/17 03:37:04;;;;;;;38.70;17.88;;;;;;;-4.04;100.00;94399.88;2057613;28;20490;-56
2024/01/17 03:38:05;;;;;;;34.90;17.02;;;;;;;-4.03;100.00;94400.75;2057691;28;20058;-56
2024/01/17 03:39:06;;;;;;;30.10;16.45;;;;;;;-4.04;100.00;94396.53;2049961;29;20489;-55
2024/01/17 03:40:08;;;;;;;31.10;17.20;;;;;;;-4.03;100.00;94400.75;2049138;29;20052;-56
2024/01/17 03:41:09;;;;;;;33.85;17.35;;;;;;;-4.02;100.00;94402.41;2058407;28;20046;-56
2024/01/17 03:42:15;;;;;;;33.45;17.23;;;;;;;-4.00;100.00;94391.38;2049814;29;20039;-56
2024/01/17 03:43:16;;;;;;;36.03;18.02;;;;;;;-3.94;100.00;94398.03;2050772;28;20042;-55
2024/01/17 03:44:17;;;;;;;35.03;18.30;;;;;;;-3.94;100.00;94395.50;2057779;28;20051;-56
2024/01/17 03:45:18;;;;;;;33.63;18.23;;;;;;;-3.88;100.00;94397.09;2058367;28;20390;-56
2024/01/17 03:46:20;;;;;;;39.05;20.40;;;;;;;-3.85;100.00;94397.91;2058321;28;20051;-56
2024/01/17 03:47:21;;;;;;;43.00;20.05;;;;;;;-3.77;100.00;94393.53;2057706;28;20046;-56
2024/01/17 03:48:22;;;;;;;40.95;19.35;;;;;;;-3.74;100.00;94391.78;2058281;28;20045;-56
2024/01/17 03:49:23;;;;;;;41.42;19.63;;;;;;;-3.69;100.00;94385.75;2058499;28;20053;-56
2024/01/17 03:50:24;;;;;;;42.17;21.70;;;;;;;-3.64;100.00;94380.59;2058583;28;20045;-56
2024/01/17 03:51:25;;;;;;;39.42;19.85;;;;;;;-3.57;100.00;94379.66;2058164;28;20482;-56
2024/01/17 03:52:26;;;;;;;42.75;20.80;;;;;;;-3.53;100.00;94378.69;2058332;28;20039;-56
2024/01/17 03:53:27;;;;;;;39.22;20.17;;;;;;;-3.53;100.00;94373.63;2058100;28;20055;-56
2024/01/17 03:54:29;;;;;;;44.72;21.02;;;;;;;-3.46;100.00;94376.91;2057395;28;20055;-56
2024/01/17 03:55:30;;;;;;;39.25;20.23;;;;;;;-3.41;100.00;94375.94;2058281;28;20051;-56
2024/01/17 03:56:31;;;;;;;41.22;20.52;;;;;;;-3.34;100.00;94367.34;2057683;28;20061;-55
2024/01/17 03:57:32;;;;;;;49.92;19.92;;;;;;;-3.25;100.00;94371.41;2058367;28;20511;-56
2024/01/17 03:58:33;;;;;;;42.88;20.55;;;;;;;-3.28;100.00;94363.84;2057677;28;20459;-56
2024/01/17 03:59:34;;;;;;;40.08;21.60;;;;;;;-3.34;100.00;94357.19;2057773;28;20050;-56
2024/01/17 04:00:36;;;;;;;41.47;20.50;;;;;;;-3.34;100.00;94354.66;2058250;28;20055;-56
2024/01/17 04:01:44;;;;;;;40.20;21.55;;;;;;;-3.29;100.00;94353.72;2058126;28;20045;-55
2024/01/17 04:02:45;;;;;;;37.67;19.80;;;;;;;-3.26;100.00;94359.59;2058086;28;20051;-55
2024/01/17 04:03:46;;;;;;;37.80;20.80;;;;;;;-3.23;100.00;94358.69;2058109;28;20047;-56
2024/01/17 04:04:47;;;;;;;32.67;19.40;;;;;;;-3.16;100.00;94357.69;2058354;28;20046;-56
2024/01/17 04:05:48;;;;;;;38.30;20.63;;;;;;;-3.12;100.00;94351.69;2058325;28;20446;-56
2024/01/17 04:06:49;;;;;;;44.13;21.35;;;;;;;-3.14;100.00;94346.63;2057557;28;20069;-56
2024/01/17 04:07:50;;;;;;;39.20;20.77;;;;;;;-3.12;100.00;94351.69;2057162;28;20058;-56
2024/01/17 04:08:51;;;;;;;41.47;20.20;;;;;;;-3.03;100.00;94354.03;2057830;28;20042;-56
2024/01/17 04:09:53;;;;;;;37.58;19.67;;;;;;;-3.02;100.00;94350.63;2058193;28;20047;-56
2024/01/17 04:10:54;;;;;;;37.97;20.77;;;;;;;-2.97;100.00;94341.19;2058396;28;20509;-56
2024/01/17 04:11:55;;;;;;;35.72;19.98;;;;;;;-2.96;100.00;94350.50;2058280;28;20455;-56
2024/01/17 04:12:56;;;;;;;39.40;19.08;;;;;;;-2.90;100.00;94345.28;2058219;28;20046;-56
2024/01/17 04:13:57;;;;;;;40.83;20.58;;;;;;;-2.88;100.00;94338.47;2057723;28;20062;-55
2024/01/17 04:14:58;;;;;;;41.00;21.35;;;;;;;-2.85;100.00;94339.28;2058199;28;20502;-55
2024/01/17 04:15:59;;;;;;;41.25;21.25;;;;;;;-2.82;100.00;94340.03;2057464;28;20055;-56
2024/01/17 04:17:00;;;;;;;39.33;21.30;;;;;;;-2.76;100.00;94339.06;2058105;28;20046;-56
2024/01/17 04:18:01;;;;;;;40.13;22.50;;;;;;;-2.73;100.00;94338.97;2058034;28;20068;-56
2024/01/17 04:19:03;;;;;;;40.03;22.00;;;;;;;-2.71;100.00;94337.25;2057965;28;20058;-56
2024/01/17 04:20:07;;;;;;;44.95;21.80;;;;;;;-2.73;100.00;94334.72;2057423;28;20050;-56
2024/01/17 04:21:08;;;;;;;41.80;22.60;;;;;;;-2.65;100.00;94347.28;2057450;28;20513;-56
2024/01/17 04:22:09;;;;;;;39.65;22.58;;;;;;;-2.64;100.00;94346.41;2058145;28;20050;-56
2024/01/17 04:23:11;;;;;;;42.33;21.02;;;;;;;-2.60;100.00;94334.47;2057573;28;20059;-56
2024/01/17 04:24:12;;;;;;;38.40;21.70;;;;;;;-2.59;100.00;94339.53;2057455;28;20070;-56
2024/01/17 04:25:13;;;;;;;40.08;20.95;;;;;;;-2.50;100.00;94344.38;2057956;28;20489;-56
2024/01/17 04:26:22;;;;;;;45.45;21.10;;;;;;;-2.47;100.00;94344.31;2058274;28;20478;-56
2024/01/17 04:27:24;;;;;;;39.10;21.42;;;;;;;-2.40;100.00;94341.66;2057477;28;20062;-56
2024/01/17 04:28:25;;;;;;;43.25;23.17;;;;;;;-2.35;100.00;94334.72;2057973;28;20034;-56
2024/01/17 04:29:26;;;;;;;37.30;21.38;;;;;;;-2.35;100.00;94332.19;2057943;28;20042;-56
2024/01/17 04:30:27;;;;;;;46.83;22.90;;;;;;;-2.34;100.00;94337.25;2057999;28;20054;-56
2024/01/17 04:31:29;;;;;;;44.40;21.98;;;;;;;-2.26;100.00;94339.59;2057874;28;20046;-56
2024/01/17 04:32:32;;;;;;;42.05;22.38;;;;;;;-2.21;100.00;94332.69;2057963;28;20053;-56
2024/01/17 04:33:33;;;;;;;43.30;22.33;;;;;;;-2.19;100.00;94330.09;2057063;28;20061;-56
2024/01/17 04:34:34;;;;;;;42.70;21.55;;;;;;;-2.12;100.00;94332.47;2057132;28;20471;-56
2024/01/17 04:35:36;;;;;;;43.75;22.52;;;;;;;-2.14;100.00;94333.38;2057294;28;20046;-56
2024/01/17 04:36:37;;;;;;;46.35;24.20;;;;;;;-2.14;100.00;94325.75;2057842;28;20054;-56
2024/01/17 04:37:39;;;;;;;48.05;25.10;;;;;;;-2.12;100.00;94319.75;2057813;28;20407;-56
2024/01/17 04:38:40;;;;;;;49.75;25.60;;;;;;;-2.10;100.00;94315.47;2057946;28;20368;-56